createdAt,value
2024-01-15T00:00:01.212Z,17.74
2024-01-15T00:02:34.670Z,17.39
2024-01-15T00:05:03.595Z,17.18
2024-01-15T00:07:31.951Z,17.39
2024-01-15T00:10:02.499Z,17.09
2024-01-15T00:12:34.810Z,17.30
2024-01-15T00:15:03.410Z,17.25
2024-01-15T00:17:31.625Z,17.76
2024-01-15T00:20:00.330Z,17.13
2024-01-15T00:22:28.994Z,16.96
2024-01-15T00:24:57.629Z,17.14
2024-01-15T00:27:27.314Z,16.98
2024-01-15T00:29:56.326Z,17.13
2024-01-15T00:32:24.583Z,17.16
2024-01-15T00:34:53.271Z,17.29
2024-01-15T00:37:21.598Z,17.50
2024-01-15T00:39:50.305Z,17.31
2024-01-15T00:42:18.971Z,17.61
2024-01-15T00:44:48.846Z,17.02
2024-01-15T00:47:17.248Z,17.05
2024-01-15T00:49:46.382Z,17.10
2024-01-15T00:52:14.643Z,17.42
2024-01-15T00:54:43.461Z,17.60
2024-01-15T00:57:11.889Z,17.48
2024-01-15T00:59:41.186Z,17.04
2024-01-15T01:02:11.086Z,16.84
2024-01-15T01:04:39.790Z,17.43
2024-01-15T01:07:08.405Z,17.31
2024-01-15T01:09:37.333Z,17.19
2024-01-15T01:12:07.327Z,17.40
2024-01-15T01:14:36.267Z,17.09
2024-01-15T01:17:04.693Z,17.09
2024-01-15T01:19:34.766Z,16.99
2024-01-15T01:22:03.130Z,17.24
2024-01-15T01:24:31.650Z,17.35
2024-01-15T01:27:00.081Z,17.67
2024-01-15T01:29:28.995Z,17.59
2024-01-15T01:31:57.840Z,17.49
2024-01-15T01:34:26.490Z,17.27
2024-01-15T01:36:56.249Z,16.97
2024-01-15T01:39:24.700Z,17.26
2024-01-15T01:41:53.186Z,17.31
2024-01-15T01:44:21.772Z,17.17
2024-01-15T01:46:50.178Z,17.18
2024-01-15T01:49:19.133Z,16.97
2024-01-15T01:51:47.666Z,16.87
2024-01-15T01:54:17.749Z,16.86
2024-01-15T01:56:46.189Z,16.84
2024-01-15T01:59:15.115Z,17.00
2024-01-15T02:01:44.164Z,16.99
2024-01-15T02:04:14.071Z,16.90
2024-01-15T02:06:43.178Z,16.59
2024-01-15T02:09:11.962Z,16.79
2024-01-15T02:11:41.907Z,16.61
2024-01-15T02:14:11.586Z,16.95
2024-01-15T02:16:39.819Z,17.29
2024-01-15T02:19:09.066Z,17.31
2024-01-15T02:21:37.406Z,17.18
2024-01-15T02:24:07.937Z,16.69
2024-01-15T02:26:38.303Z,16.96
2024-01-15T02:29:07.373Z,16.53
2024-01-15T02:31:35.735Z,16.49
2024-01-15T02:34:04.406Z,16.68
2024-01-15T02:36:32.985Z,16.55
2024-01-15T02:39:01.659Z,16.57
2024-01-15T02:41:31.445Z,16.21
2024-01-15T02:44:00.180Z,16.40
2024-01-15T02:46:28.602Z,16.34
2024-01-15T02:48:57.353Z,16.25
2024-01-15T02:51:25.986Z,16.62
2024-01-15T02:53:54.670Z,16.47
2024-01-15T02:56:22.965Z,16.30
2024-01-15T02:58:52.730Z,16.09
2024-01-15T03:01:21.612Z,16.87
2024-01-15T03:03:50.339Z,16.81
2024-01-15T03:06:18.769Z,16.81
2024-01-15T03:08:47.294Z,17.04
2024-01-15T03:11:15.605Z,16.48
2024-01-15T03:13:44.688Z,16.22
2024-01-15T03:16:14.399Z,15.93
2024-01-15T03:18:43.229Z,16.43
2024-01-15T03:21:11.439Z,16.09
2024-01-15T03:23:40.254Z,16.62
2024-01-15T03:26:08.408Z,16.18
2024-01-15T03:28:37.082Z,16.53
2024-01-15T03:31:05.759Z,16.12
2024-01-15T03:33:35.814Z,15.82
2024-01-15T03:36:04.194Z,16.22
2024-01-15T03:38:32.970Z,16.31
2024-01-15T03:41:01.146Z,16.47
2024-01-15T03:43:30.095Z,16.54
2024-01-15T03:45:58.361Z,16.50
2024-01-15T03:48:27.384Z,16.32
2024-01-15T03:50:57.038Z,16.24
2024-01-15T03:53:25.515Z,16.28
2024-01-15T03:55:54.121Z,16.21
2024-01-15T03:58:22.554Z,16.35
2024-01-15T04:00:50.812Z,16.58
2024-01-15T04:03:19.426Z,16.37
2024-01-15T04:05:48.055Z,16.57
2024-01-15T04:08:18.038Z,16.27
2024-01-15T04:10:46.696Z,16.23
2024-01-15T04:13:15.159Z,16.22
2024-01-15T04:15:43.603Z,16.32
2024-01-15T04:18:12.237Z,16.04
2024-01-15T04:20:40.738Z,16.10
2024-01-15T04:23:09.216Z,16.16
2024-01-15T04:25:38.953Z,16.05
2024-01-15T04:28:07.746Z,16.30
2024-01-15T04:30:36.179Z,16.41
2024-01-15T04:33:05.118Z,16.74
2024-01-15T04:35:33.616Z,16.69
2024-01-15T04:38:02.084Z,16.87
2024-01-15T04:40:30.378Z,16.67
2024-01-15T04:43:00.302Z,16.43
2024-01-15T04:45:30.148Z,16.51
2024-01-15T04:47:59.199Z,16.92
2024-01-15T04:50:27.618Z,17.07
2024-01-15T04:52:56.188Z,16.67
2024-01-15T04:55:24.572Z,16.63
2024-01-15T04:57:53.138Z,16.93
2024-01-15T05:00:23.159Z,16.62
2024-01-15T05:02:51.835Z,17.33
2024-01-15T05:05:20.337Z,17.30
2024-01-15T05:07:49.336Z,16.95
2024-01-15T05:10:17.636Z,17.05
2024-01-15T05:12:46.496Z,17.04
2024-01-15T05:15:15.002Z,17.26
2024-01-15T05:17:45.017Z,16.85
2024-01-15T05:20:13.864Z,17.24
2024-01-15T05:22:42.485Z,17.22
2024-01-15T05:25:10.922Z,17.08
2024-01-15T05:27:39.404Z,17.21
2024-01-15T05:30:08.695Z,17.24
2024-01-15T05:32:37.387Z,17.40
2024-01-15T05:35:07.753Z,17.33
2024-01-15T05:37:36.646Z,17.63
2024-01-15T05:40:06.660Z,17.64
2024-01-15T05:42:35.267Z,17.62
2024-01-15T05:45:05.797Z,17.46
2024-01-15T05:47:34.483Z,17.80
2024-01-15T05:50:03.673Z,17.24
2024-01-15T05:52:33.793Z,17.11
2024-01-15T05:55:02.202Z,17.17
2024-01-15T05:57:30.754Z,17.20
2024-01-15T05:59:59.230Z,17.09
2024-01-15T06:02:27.876Z,17.05
2024-01-15T06:04:56.767Z,17.08
2024-01-15T06:07:25.588Z,17.07
2024-01-15T06:09:55.453Z,16.99
2024-01-15T06:12:25.010Z,17.15
2024-01-15T06:14:53.676Z,17.23
2024-01-15T06:17:22.466Z,16.92
2024-01-15T06:19:51.067Z,17.03
2024-01-15T06:22:20.357Z,16.69
2024-01-15T06:24:48.833Z,16.74
2024-01-15T06:27:18.967Z,16.57
2024-01-15T06:29:50.692Z,16.61
2024-01-15T06:32:19.847Z,16.81
2024-01-15T06:34:48.190Z,16.90
2024-01-15T06:37:16.893Z,17.01
2024-01-15T06:39:45.322Z,17.01
2024-01-15T06:42:14.200Z,17.02
2024-01-15T06:44:43.738Z,16.45
2024-01-15T06:47:12.183Z,16.71
2024-01-15T06:49:40.524Z,16.63
2024-01-15T06:52:09.378Z,16.74
2024-01-15T06:54:37.647Z,16.58
2024-01-15T06:57:08.177Z,16.78
2024-01-15T06:59:36.864Z,16.44
2024-01-15T07:02:07.239Z,16.53
2024-01-15T07:04:39.201Z,16.59
2024-01-15T07:07:09.103Z,16.26
2024-01-15T07:09:37.656Z,16.55
2024-01-15T07:12:06.671Z,16.89
2024-01-15T07:14:36.704Z,16.92
2024-01-15T07:17:07.755Z,16.71
2024-01-15T07:19:36.107Z,16.99
2024-01-15T07:22:05.661Z,16.74
2024-01-15T07:24:35.363Z,16.67
2024-01-15T07:27:06.050Z,16.91
2024-01-15T07:29:37.245Z,16.79
2024-01-15T07:32:09.016Z,16.49
2024-01-15T07:34:37.398Z,16.46
2024-01-15T07:37:06.159Z,16.45
2024-01-15T07:39:34.421Z,16.70
2024-01-15T07:42:03.692Z,16.43
2024-01-15T07:44:31.949Z,16.39
2024-01-15T07:47:00.551Z,16.44
2024-01-15T07:49:31.023Z,16.26
2024-01-15T07:51:59.750Z,16.50
2024-01-15T07:54:28.204Z,16.00
2024-01-15T07:56:57.464Z,15.91
2024-01-15T07:59:26.093Z,15.82
2024-01-15T08:01:55.277Z,16.01
2024-01-15T08:04:24.239Z,16.03
2024-01-15T08:06:54.450Z,16.07
2024-01-15T08:09:23.212Z,16.21
2024-01-15T08:11:52.083Z,16.06
2024-01-15T08:14:20.585Z,15.60
2024-01-15T08:16:49.172Z,16.09
2024-01-15T08:19:17.759Z,15.98
2024-01-15T08:21:46.580Z,16.03
2024-01-15T08:24:18.148Z,15.78
2024-01-15T08:26:47.252Z,15.87
2024-01-15T08:29:15.711Z,15.50
2024-01-15T08:31:44.410Z,16.47
2024-01-15T08:34:12.782Z,17.39
2024-01-15T08:36:42.005Z,18.13
2024-01-15T08:39:10.710Z,17.83
2024-01-15T08:41:40.628Z,17.51
2024-01-15T08:44:09.130Z,17.60
2024-01-15T08:46:37.918Z,17.60
2024-01-15T08:49:07.406Z,17.39
2024-01-15T08:51:36.155Z,16.94
2024-01-15T08:54:04.494Z,16.74
2024-01-15T08:56:33.225Z,16.70
2024-01-15T08:59:02.729Z,16.58
2024-01-15T09:01:32.232Z,16.97
2024-01-15T09:04:00.972Z,16.89
2024-01-15T09:06:33.125Z,16.90
2024-01-15T09:09:02.596Z,16.77
2024-01-15T09:11:31.453Z,16.54
2024-01-15T09:14:00.193Z,16.42
2024-01-15T09:16:30.422Z,15.73
2024-01-15T09:18:59.237Z,15.34
2024-01-15T09:21:28.349Z,15.20
2024-01-15T09:23:56.556Z,15.11
2024-01-15T09:26:25.324Z,15.28
2024-01-15T09:28:54.511Z,15.14
2024-01-15T09:31:23.241Z,15.36
2024-01-15T09:33:57.373Z,15.31
2024-01-15T09:36:26.893Z,14.95
2024-01-15T09:38:55.042Z,14.83
2024-01-15T09:41:23.656Z,14.55
2024-01-15T09:43:53.302Z,14.13
2024-01-15T09:46:21.818Z,14.18
2024-01-15T09:48:50.698Z,14.29
2024-01-15T09:51:20.586Z,13.97
2024-01-15T09:53:49.454Z,14.02
2024-01-15T09:56:18.304Z,13.86
2024-01-15T09:58:46.734Z,13.21
2024-01-15T10:01:16.659Z,13.02
2024-01-15T10:03:45.259Z,12.27
2024-01-15T10:06:14.140Z,11.32
2024-01-15T10:08:43.894Z,10.69
2024-01-15T10:11:12.487Z,11.32
2024-01-15T10:13:42.104Z,11.38
2024-01-15T10:16:12.549Z,11.64
2024-01-15T10:18:41.307Z,11.66
2024-01-15T10:21:10.373Z,11.66
2024-01-15T10:23:38.593Z,11.83
2024-01-15T10:26:08.622Z,11.91
2024-01-15T10:28:36.829Z,12.29
2024-01-15T10:31:06.402Z,12.12
2024-01-15T10:33:35.124Z,11.96
2024-01-15T10:36:04.004Z,12.03
2024-01-15T10:38:32.517Z,11.57
2024-01-15T10:41:01.086Z,11.46
2024-01-15T10:43:30.892Z,11.46
2024-01-15T10:45:59.700Z,12.22
2024-01-15T10:48:30.139Z,12.06
2024-01-15T10:50:59.579Z,12.08
2024-01-15T10:53:29.294Z,12.44
2024-01-15T10:55:58.900Z,12.41
2024-01-15T10:58:30.938Z,12.48
2024-01-15T11:00:59.725Z,13.09
2024-01-15T11:03:28.502Z,13.20
2024-01-15T11:05:56.111Z,13.34
2024-01-15T11:08:24.484Z,13.22
2024-01-15T11:10:53.758Z,13.57
2024-01-15T11:13:26.300Z,13.40
2024-01-15T11:16:02.754Z,13.25
2024-01-15T11:18:32.167Z,13.71
2024-01-15T11:21:24.514Z,12.86
2024-01-15T11:23:55.057Z,13.59
2024-01-15T11:26:33.936Z,13.53
2024-01-15T11:29:04.327Z,13.97
2024-01-15T11:32:02.046Z,13.34
2024-01-15T11:34:53.972Z,13.22
2024-01-15T11:37:24.998Z,13.69
2024-01-15T11:39:56.983Z,13.44
2024-01-15T11:42:29.089Z,13.80
2024-01-15T11:44:57.526Z,13.92
2024-01-15T11:48:05.863Z,13.28
2024-01-15T11:50:34.735Z,14.01
2024-01-15T11:53:07.333Z,14.08
2024-01-15T11:55:37.593Z,14.52
2024-01-15T11:58:11.254Z,14.13
2024-01-15T12:00:42.991Z,14.54
2024-01-15T12:03:13.962Z,15.24
2024-01-15T12:05:43.382Z,14.93
2024-01-15T12:08:13.113Z,14.72
2024-01-15T12:10:43.258Z,14.69
2024-01-15T12:13:14.305Z,14.84
2024-01-15T12:15:44.470Z,15.22
2024-01-15T12:18:16.664Z,14.85
2024-01-15T12:20:48.827Z,15.17
2024-01-15T12:23:19.316Z,15.17
2024-01-15T12:25:48.578Z,15.00
2024-01-15T12:28:18.105Z,15.15
2024-01-15T12:30:51.033Z,14.88
2024-01-15T12:33:22.754Z,14.65
2024-01-15T12:35:51.240Z,14.86
2024-01-15T12:38:22.270Z,15.05
2024-01-15T12:40:51.143Z,14.95
2024-01-15T12:43:19.811Z,14.87
2024-01-15T12:45:48.363Z,14.90
2024-01-15T12:48:19.385Z,14.84
2024-01-15T12:50:49.813Z,14.55
2024-01-15T12:53:19.113Z,14.87
2024-01-15T12:55:47.642Z,15.18
2024-01-15T12:58:17.995Z,14.95
2024-01-15T13:00:48.386Z,15.03
2024-01-15T13:03:17.285Z,15.16
2024-01-15T13:05:46.592Z,14.93
2024-01-15T13:08:16.764Z,15.21
2024-01-15T13:10:45.475Z,15.27
2024-01-15T13:13:14.251Z,15.10
2024-01-15T13:15:43.332Z,15.70
2024-01-15T13:18:12.055Z,15.39
2024-01-15T13:20:40.715Z,15.25
2024-01-15T13:23:11.138Z,15.80
2024-01-15T13:25:41.033Z,15.71
2024-01-15T13:28:10.512Z,15.77
2024-01-15T13:30:39.838Z,16.05
2024-01-15T13:33:09.841Z,15.88
2024-01-15T13:35:38.335Z,15.76
2024-01-15T13:38:07.347Z,16.16
2024-01-15T13:40:35.542Z,16.05
2024-01-15T13:43:09.612Z,15.66
2024-01-15T13:45:38.665Z,15.97
2024-01-15T13:48:09.490Z,15.70
2024-01-15T13:50:38.194Z,15.73
2024-01-15T13:53:06.724Z,15.79
2024-01-15T13:55:35.009Z,15.47
2024-01-15T13:58:07.011Z,15.81
2024-01-15T14:00:35.617Z,15.55
2024-01-15T14:03:04.818Z,15.38
2024-01-15T14:05:33.928Z,15.55
2024-01-15T14:08:02.683Z,15.28
2024-01-15T14:10:30.838Z,15.55
2024-01-15T14:12:59.363Z,15.50
2024-01-15T14:15:29.059Z,15.26
2024-01-15T14:17:59.212Z,15.27
2024-01-15T14:20:27.760Z,15.06
2024-01-15T14:22:56.756Z,15.41
2024-01-15T14:25:25.482Z,15.12
2024-01-15T14:27:54.073Z,14.97
2024-01-15T14:30:22.325Z,15.13
2024-01-15T14:32:52.352Z,14.96
2024-01-15T14:35:20.861Z,15.02
2024-01-15T14:37:49.599Z,15.31
2024-01-15T14:40:18.358Z,15.22
2024-01-15T14:42:47.256Z,15.11
2024-01-15T14:45:15.872Z,15.03
2024-01-15T14:47:45.680Z,14.86
2024-01-15T14:50:15.968Z,14.57
2024-01-15T14:52:46.148Z,14.83
2024-01-15T14:55:15.391Z,14.99
2024-01-15T14:57:44.853Z,14.83
2024-01-15T15:00:17.061Z,15.05
2024-01-15T15:02:46.798Z,15.15
2024-01-15T15:05:18.338Z,15.10
2024-01-15T15:07:49.205Z,15.54
2024-01-15T15:10:17.960Z,15.68
2024-01-15T15:12:46.655Z,15.54
2024-01-15T15:15:21.493Z,15.57
2024-01-15T15:17:50.469Z,15.44
2024-01-15T15:20:21.778Z,15.28
2024-01-15T15:22:50.459Z,15.96
2024-01-15T15:25:19.364Z,15.45
2024-01-15T15:27:48.542Z,15.24
2024-01-15T15:30:17.623Z,15.36
2024-01-15T15:32:46.260Z,15.53
2024-01-15T15:35:15.299Z,15.31
2024-01-15T15:37:45.642Z,15.30
2024-01-15T15:40:14.342Z,15.28
2024-01-15T15:42:43.399Z,15.46
2024-01-15T15:45:12.269Z,15.70
2024-01-15T15:47:41.031Z,15.64
2024-01-15T15:50:10.485Z,15.27
2024-01-15T15:52:39.533Z,15.33
2024-01-15T15:55:10.408Z,15.64
2024-01-15T15:57:38.803Z,14.70
2024-01-15T16:00:09.257Z,15.61
2024-01-15T16:02:38.228Z,15.60
2024-01-15T16:05:11.301Z,15.41
2024-01-15T16:07:40.169Z,15.55
2024-01-15T16:10:11.191Z,15.69
2024-01-15T16:12:40.387Z,14.54
2024-01-15T16:15:20.068Z,15.15
2024-01-15T16:23:17.178Z,15.78
2024-01-15T16:23:31.546Z,15.89
2024-01-15T16:24:04.637Z,15.79
2024-01-15T16:26:18.102Z,15.80
2024-01-15T16:28:47.071Z,15.94
2024-01-15T16:31:17.568Z,15.96
2024-01-15T16:33:50.237Z,16.04
2024-01-15T16:36:23.074Z,15.71
2024-01-15T16:38:52.329Z,15.89
2024-01-15T16:41:22.225Z,15.74
2024-01-15T16:43:50.862Z,16.08
2024-01-15T16:46:19.588Z,16.42
2024-01-15T16:48:48.269Z,16.08
2024-01-15T16:51:17.038Z,16.44
2024-01-15T16:53:45.768Z,16.05
2024-01-15T16:56:14.081Z,15.97
2024-01-15T16:58:44.046Z,15.78
2024-01-15T17:01:13.024Z,16.13
2024-01-15T17:03:41.728Z,16.02
2024-01-15T17:06:09.983Z,16.11
2024-01-15T17:08:38.772Z,16.06
2024-01-15T17:11:07.215Z,16.17
2024-01-15T17:13:36.038Z,16.08
2024-01-15T17:16:07.239Z,15.81
2024-01-15T17:18:35.944Z,15.78
2024-01-15T17:21:04.199Z,16.06
2024-01-15T17:23:33.160Z,15.72
2024-01-15T17:26:01.475Z,15.91
2024-01-15T17:28:30.215Z,15.82
2024-01-15T17:31:00.044Z,15.89
2024-01-15T17:33:30.239Z,15.78
2024-01-15T17:36:00.396Z,15.91
2024-01-15T17:38:30.207Z,16.05
2024-01-15T17:40:59.151Z,16.42
2024-01-15T17:43:28.358Z,16.37
2024-01-15T17:46:01.844Z,16.41
2024-01-15T17:48:32.569Z,16.41
2024-01-15T17:51:01.753Z,16.75
2024-01-15T17:53:30.358Z,16.91
2024-01-15T17:55:58.994Z,16.68
2024-01-15T17:58:31.998Z,16.81
2024-01-15T18:01:03.195Z,16.92
2024-01-15T18:03:33.347Z,16.86
2024-01-15T18:06:02.575Z,17.42
2024-01-15T18:08:31.160Z,17.35
2024-01-15T18:10:59.677Z,17.55
2024-01-15T18:13:28.289Z,17.54
2024-01-15T18:15:58.764Z,17.33
2024-01-15T18:18:27.703Z,17.43
2024-01-15T18:20:57.724Z,17.26
2024-01-15T18:23:26.599Z,17.38
2024-01-15T18:25:56.850Z,17.32
2024-01-15T18:28:25.738Z,17.27
2024-01-15T18:30:54.587Z,16.77
2024-01-15T18:33:24.448Z,16.86
2024-01-15T18:35:53.503Z,16.71
2024-01-15T18:38:23.666Z,16.86
2024-01-15T18:40:53.027Z,16.44
2024-01-15T18:43:23.080Z,16.84
2024-01-15T18:45:51.672Z,16.85
2024-01-15T18:48:20.594Z,16.49
2024-01-15T18:50:49.475Z,16.28
2024-01-15T18:53:18.205Z,16.20
2024-01-15T18:55:48.096Z,15.78
2024-01-15T18:58:18.135Z,16.19
2024-01-15T19:00:46.949Z,16.29
2024-01-15T19:03:15.494Z,16.37
2024-01-15T19:05:44.657Z,16.24
2024-01-15T19:08:13.387Z,16.08
2024-01-15T19:10:41.881Z,16.18
2024-01-15T19:13:13.399Z,16.27
2024-01-15T19:15:41.848Z,16.20
2024-01-15T19:18:11.312Z,16.20
2024-01-15T19:20:39.984Z,16.12
2024-01-15T19:23:09.657Z,16.09
2024-01-15T19:25:38.409Z,16.04
2024-01-15T19:28:08.437Z,16.20
2024-01-15T19:30:39.434Z,15.90
2024-01-15T19:33:12.512Z,15.76
2024-01-15T19:35:41.236Z,16.15
2024-01-15T19:38:10.465Z,16.27
2024-01-15T19:40:39.222Z,16.25
2024-01-15T19:43:08.399Z,16.57
2024-01-15T19:45:39.441Z,16.54
2024-01-15T19:48:08.607Z,16.01
2024-01-15T19:50:37.418Z,17.59
2024-01-15T19:53:06.592Z,17.88
2024-01-15T19:55:35.385Z,18.51
2024-01-15T19:58:04.414Z,18.38
2024-01-15T20:00:33.211Z,18.61
2024-01-15T20:03:04.047Z,18.80
2024-01-15T20:05:33.130Z,18.93
2024-01-15T20:08:05.244Z,19.55
2024-01-15T20:10:35.253Z,19.05
2024-01-15T20:13:03.768Z,19.48
2024-01-15T20:15:32.351Z,19.81
2024-01-15T20:18:00.988Z,19.59
2024-01-15T20:20:31.219Z,19.52
2024-01-15T20:23:01.881Z,19.42
2024-01-15T20:25:30.722Z,19.62
2024-01-15T20:27:59.532Z,19.93
2024-01-15T20:30:29.357Z,19.94
2024-01-15T20:32:58.295Z,19.52
2024-01-15T20:35:26.653Z,19.51
2024-01-15T20:37:56.877Z,19.42
2024-01-15T20:40:25.196Z,19.17
2024-01-15T20:42:53.717Z,19.19
2024-01-15T20:45:23.596Z,18.98
2024-01-15T20:47:53.444Z,18.69
2024-01-15T20:50:22.060Z,18.76
2024-01-15T20:52:50.791Z,18.51
2024-01-15T20:55:21.045Z,18.33
2024-01-15T20:57:49.593Z,18.10
2024-01-15T21:00:22.264Z,17.66
2024-01-15T21:02:51.495Z,17.81
2024-01-15T21:05:20.618Z,17.47
2024-01-15T21:07:51.857Z,17.26
2024-01-15T21:10:22.849Z,17.26
2024-01-15T21:12:51.440Z,17.30
2024-01-15T21:15:19.925Z,17.25
2024-01-15T21:17:50.523Z,17.45
2024-01-15T21:20:19.340Z,17.37
2024-01-15T21:22:47.922Z,17.37
2024-01-15T21:25:16.377Z,17.01
2024-01-15T21:27:47.384Z,16.75
2024-01-15T21:30:17.093Z,17.23
2024-01-15T21:32:45.817Z,17.20
2024-01-15T21:35:14.223Z,17.13
2024-01-15T21:37:44.339Z,17.30
2024-01-15T21:40:13.596Z,17.05
2024-01-15T21:42:42.532Z,17.44
2024-01-15T21:45:12.290Z,16.81
2024-01-15T21:47:42.452Z,17.46
2024-01-15T21:50:11.284Z,17.33
2024-01-15T21:52:39.907Z,17.30
2024-01-15T21:55:11.017Z,17.35
2024-01-15T21:57:39.765Z,17.27
2024-01-15T22:00:09.373Z,17.46
2024-01-15T22:02:45.162Z,17.53
2024-01-15T22:05:14.529Z,17.56
2024-01-15T22:07:44.704Z,17.86
2024-01-15T22:10:14.201Z,17.83
2024-01-15T22:12:43.084Z,17.91
2024-01-15T22:15:14.334Z,17.81
2024-01-15T22:17:44.578Z,17.38
2024-01-15T22:20:13.806Z,17.79
2024-01-15T22:22:42.456Z,17.82
2024-01-15T22:25:11.014Z,17.84
2024-01-15T22:27:39.508Z,17.89
2024-01-15T22:30:10.020Z,17.75
2024-01-15T22:32:39.121Z,18.10
2024-01-15T22:35:12.013Z,17.64
2024-01-15T22:37:44.130Z,18.04
2024-01-15T22:40:15.335Z,18.28
2024-01-15T22:42:43.738Z,18.23
2024-01-15T22:45:16.614Z,18.20
2024-01-15T22:47:46.534Z,18.40
2024-01-15T22:50:16.600Z,18.62
2024-01-15T22:52:44.147Z,18.63
2024-01-15T22:55:14.101Z,18.78
2024-01-15T22:57:43.401Z,18.67
2024-01-15T23:00:19.671Z,18.37
2024-01-15T23:02:49.148Z,18.48
2024-01-15T23:05:19.125Z,18.13
2024-01-15T23:07:47.815Z,18.23
2024-01-15T23:10:16.367Z,18.64
2024-01-15T23:12:44.977Z,18.65
2024-01-15T23:15:14.596Z,18.57
2024-01-15T23:17:45.216Z,18.40
2024-01-15T23:20:14.201Z,18.53
2024-01-15T23:22:44.084Z,18.43
2024-01-15T23:25:12.567Z,18.35
2024-01-15T23:27:41.146Z,18.33
2024-01-15T23:30:10.612Z,18.64
2024-01-15T23:32:39.545Z,19.11
2024-01-15T23:35:09.143Z,19.14
2024-01-15T23:37:39.255Z,18.52
2024-01-15T23:40:10.269Z,18.27
2024-01-15T23:42:38.905Z,17.28
2024-01-15T23:45:08.663Z,18.82
2024-01-15T23:47:37.904Z,18.83
2024-01-15T23:50:06.763Z,18.73
2024-01-15T23:52:35.342Z,18.86
2024-01-15T23:55:03.595Z,18.78
2024-01-15T23:57:33.563Z,18.58
